sensor_id;sensor_type;location;lat;lon;timestamp;pressure;altitude;pressure_sealevel;temperature;humidity
5413;BME280;2729;50.056;8.678;2023-05-21T00:01:18;100091.19;;;17.44;100.00
5413;BME280;2729;50.056;8.678;2023-05-21T00:03:44;100089.47;;;17.58;100.00
5413;BME280;2729;50.056;8.678;2023-05-21T00:06:13;100094.84;;;17.41;100.00
5413;BME280;2729;50.056;8.678;2023-05-21T00:08:40;100087.88;;;17.56;100.00
5413;BME280;2729;50.056;8.678;2023-05-21T00:11:07;100092.22;;;17.41;100.00
5413;BME280;2729;50.056;8.678;2023-05-21T00:13:33;100080.03;;;17.70;100.00
5413;BME280;2729;50.056;8.678;2023-05-21T00:15:59;100089.91;;;17.51;100.00
5413;BME280;2729;50.056;8.678;2023-05-21T00:18:25;100084.19;;;17.58;100.00
5413;BME280;2729;50.056;8.678;2023-05-21T00:20:51;100069.94;;;17.31;100.00
5413;BME280;2729;50.056;8.678;2023-05-21T00:23:17;100089.00;;;17.36;100.00
5413;BME280;2729;50.056;8.678;2023-05-21T00:25:44;100079.28;;;17.52;100.00
5413;BME280;2729;50.056;8.678;2023-05-21T00:28:11;100073.41;;;17.47;100.00
5413;BME280;2729;50.056;8.678;2023-05-21T00:30:37;100075.44;;;17.42;100.00
5413;BME280;2729;50.056;8.678;2023-05-21T00:33:03;100066.25;;;17.49;100.00
5413;BME280;2729;50.056;8.678;2023-05-21T00:35:29;100064.47;;;17.34;100.00
5413;BME280;2729;50.056;8.678;2023-05-21T00:37:55;100070.16;;;17.42;100.00
5413;BME280;2729;50.056;8.678;2023-05-21T00:40:22;100070.34;;;17.39;100.00
5413;BME280;2729;50.056;8.678;2023-05-21T00:42:47;100063.28;;;17.40;100.00
5413;BME280;2729;50.056;8.678;2023-05-21T00:45:14;100067.72;;;17.39;100.00
5413;BME280;2729;50.056;8.678;2023-05-21T00:47:40;100060.47;;;17.27;100.00
5413;BME280;2729;50.056;8.678;2023-05-21T00:50:07;100045.50;;;17.27;100.00
5413;BME280;2729;50.056;8.678;2023-05-21T00:52:33;100058.69;;;17.43;100.00
5413;BME280;2729;50.056;8.678;2023-05-21T00:55:07;100048.31;;;17.09;100.00
5413;BME280;2729;50.056;8.678;2023-05-21T00:57:34;100047.38;;;17.25;100.00
5413;BME280;2729;50.056;8.678;2023-05-21T01:00:02;100050.44;;;17.33;100.00
5413;BME280;2729;50.056;8.678;2023-05-21T01:02:29;100047.13;;;17.30;100.00
5413;BME280;2729;50.056;8.678;2023-05-21T01:04:59;100043.81;;;17.26;100.00
5413;BME280;2729;50.056;8.678;2023-05-21T01:07:25;100041.50;;;17.20;100.00
5413;BME280;2729;50.056;8.678;2023-05-21T01:09:51;100041.66;;;17.33;100.00
5413;BME280;2729;50.056;8.678;2023-05-21T01:12:19;100036.91;;;17.24;100.00
5413;BME280;2729;50.056;8.678;2023-05-21T01:14:46;100043.56;;;17.15;100.00
5413;BME280;2729;50.056;8.678;2023-05-21T01:17:13;100032.91;;;17.17;100.00
5413;BME280;2729;50.056;8.678;2023-05-21T01:19:40;100035.72;;;17.29;100.00
5413;BME280;2729;50.056;8.678;2023-05-21T01:22:11;100028.91;;;17.25;100.00
5413;BME280;2729;50.056;8.678;2023-05-21T01:24:38;100025.34;;;17.11;100.00
5413;BME280;2729;50.056;8.678;2023-05-21T01:27:05;100029.91;;;17.39;100.00
5413;BME280;2729;50.056;8.678;2023-05-21T01:29:32;100030.63;;;17.11;100.00
5413;BME280;2729;50.056;8.678;2023-05-21T01:32:32;100028.75;;;16.97;100.00
5413;BME280;2729;50.056;8.678;2023-05-21T01:35:07;100020.50;;;17.19;100.00
5413;BME280;2729;50.056;8.678;2023-05-21T01:37:52;100020.25;;;17.08;100.00
5413;BME280;2729;50.056;8.678;2023-05-21T01:40:29;100015.72;;;17.10;100.00
5413;BME280;2729;50.056;8.678;2023-05-21T01:42:57;100021.34;;;17.03;100.00
5413;BME280;2729;50.056;8.678;2023-05-21T01:45:24;100017.25;;;17.14;100.00
5413;BME280;2729;50.056;8.678;2023-05-21T01:47:53;100012.50;;;16.89;100.00
5413;BME280;2729;50.056;8.678;2023-05-21T01:50:22;100012.94;;;17.13;100.00
5413;BME280;2729;50.056;8.678;2023-05-21T01:52:50;100014.47;;;17.17;100.00
5413;BME280;2729;50.056;8.678;2023-05-21T01:55:17;100013.00;;;17.11;100.00
5413;BME280;2729;50.056;8.678;2023-05-21T01:57:44;100010.03;;;17.01;100.00
5413;BME280;2729;50.056;8.678;2023-05-21T02:00:11;100008.16;;;17.03;100.00
5413;BME280;2729;50.056;8.678;2023-05-21T02:02:46;100010.97;;;17.00;100.00
5413;BME280;2729;50.056;8.678;2023-05-21T02:05:12;100005.78;;;17.15;100.00
5413;BME280;2729;50.056;8.678;2023-05-21T02:07:38;100011.31;;;17.10;100.00
5413;BME280;2729;50.056;8.678;2023-05-21T02:10:05;100007.22;;;17.04;100.00
5413;BME280;2729;50.056;8.678;2023-05-21T02:12:32;100000.75;;;17.10;100.00
5413;BME280;2729;50.056;8.678;2023-05-21T02:15:00;100005.00;;;17.13;100.00
5413;BME280;2729;50.056;8.678;2023-05-21T02:17:27;100002.38;;;16.97;100.00
5413;BME280;2729;50.056;8.678;2023-05-21T02:19:56;100000.59;;;17.13;100.00
5413;BME280;2729;50.056;8.678;2023-05-21T02:22:22;99993.88;;;17.08;100.00
5413;BME280;2729;50.056;8.678;2023-05-21T02:24:48;99998.03;;;17.12;100.00
5413;BME280;2729;50.056;8.678;2023-05-21T02:27:14;100001.38;;;16.99;100.00
5413;BME280;2729;50.056;8.678;2023-05-21T02:29:42;100003.22;;;17.13;100.00
5413;BME280;2729;50.056;8.678;2023-05-21T02:32:08;100002.56;;;17.10;100.00
5413;BME280;2729;50.056;8.678;2023-05-21T02:34:34;99997.78;;;17.00;100.00
5413;BME280;2729;50.056;8.678;2023-05-21T02:37:01;99991.31;;;17.06;100.00
5413;BME280;2729;50.056;8.678;2023-05-21T02:39:27;99997.28;;;17.10;100.00
5413;BME280;2729;50.056;8.678;2023-05-21T02:41:54;99994.22;;;17.01;100.00
5413;BME280;2729;50.056;8.678;2023-05-21T02:44:19;99996.84;;;17.01;100.00
5413;BME280;2729;50.056;8.678;2023-05-21T02:46:48;99999.16;;;17.08;100.00
5413;BME280;2729;50.056;8.678;2023-05-21T02:49:16;99991.00;;;16.96;100.00
5413;BME280;2729;50.056;8.678;2023-05-21T02:51:44;99998.97;;;16.95;100.00
5413;BME280;2729;50.056;8.678;2023-05-21T02:54:10;100000.50;;;17.15;100.00
5413;BME280;2729;50.056;8.678;2023-05-21T02:56:36;99997.09;;;17.13;100.00
5413;BME280;2729;50.056;8.678;2023-05-21T02:59:02;99989.38;;;16.94;100.00
5413;BME280;2729;50.056;8.678;2023-05-21T03:01:28;99987.25;;;17.00;100.00
5413;BME280;2729;50.056;8.678;2023-05-21T03:03:54;99992.34;;;17.03;100.00
5413;BME280;2729;50.056;8.678;2023-05-21T03:06:20;99988.59;;;17.08;100.00
5413;BME280;2729;50.056;8.678;2023-05-21T03:08:47;99989.44;;;17.08;100.00
5413;BME280;2729;50.056;8.678;2023-05-21T03:11:13;99990.91;;;16.98;100.00
5413;BME280;2729;50.056;8.678;2023-05-21T03:13:38;99991.16;;;17.09;100.00
5413;BME280;2729;50.056;8.678;2023-05-21T03:16:05;99989.38;;;17.10;100.00
5413;BME280;2729;50.056;8.678;2023-05-21T03:18:31;99994.91;;;17.05;100.00
5413;BME280;2729;50.056;8.678;2023-05-21T03:20:57;99986.47;;;16.98;100.00
5413;BME280;2729;50.056;8.678;2023-05-21T03:23:23;99986.41;;;17.00;100.00
5413;BME280;2729;50.056;8.678;2023-05-21T03:25:50;99980.63;;;16.93;100.00
5413;BME280;2729;50.056;8.678;2023-05-21T03:28:17;99977.97;;;16.93;100.00
5413;BME280;2729;50.056;8.678;2023-05-21T03:30:46;99981.03;;;17.01;100.00
5413;BME280;2729;50.056;8.678;2023-05-21T03:33:34;99980.28;;;16.99;100.00
5413;BME280;2729;50.056;8.678;2023-05-21T03:36:06;99982.13;;;16.97;100.00
5413;BME280;2729;50.056;8.678;2023-05-21T03:38:36;99976.53;;;17.03;100.00
5413;BME280;2729;50.056;8.678;2023-05-21T03:41:02;99979.56;;;17.12;100.00
5413;BME280;2729;50.056;8.678;2023-05-21T03:43:28;99979.84;;;17.07;100.00
5413;BME280;2729;50.056;8.678;2023-05-21T03:45:54;99981.78;;;17.03;100.00
5413;BME280;2729;50.056;8.678;2023-05-21T03:48:40;99983.34;;;16.92;100.00
5413;BME280;2729;50.056;8.678;2023-05-21T03:51:08;99982.72;;;17.02;100.00
5413;BME280;2729;50.056;8.678;2023-05-21T03:53:34;99981.09;;;17.16;100.00
5413;BME280;2729;50.056;8.678;2023-05-21T03:56:00;99982.47;;;17.07;100.00
5413;BME280;2729;50.056;8.678;2023-05-21T03:58:26;99983.31;;;17.08;100.00
5413;BME280;2729;50.056;8.678;2023-05-21T04:04:40;99983.00;;;16.98;100.00
5413;BME280;2729;50.056;8.678;2023-05-21T04:07:06;99987.75;;;17.07;100.00
5413;BME280;2729;50.056;8.678;2023-05-21T04:09:39;99987.25;;;17.00;100.00
5413;BME280;2729;50.056;8.678;2023-05-21T04:12:06;99978.28;;;17.19;100.00
5413;BME280;2729;50.056;8.678;2023-05-21T04:14:32;99988.00;;;16.87;100.00
5413;BME280;2729;50.056;8.678;2023-05-21T04:16:58;99983.84;;;16.98;100.00
5413;BME280;2729;50.056;8.678;2023-05-21T04:19:24;99990.66;;;17.02;100.00
5413;BME280;2729;50.056;8.678;2023-05-21T04:21:50;99993.09;;;17.06;100.00
5413;BME280;2729;50.056;8.678;2023-05-21T04:24:19;99992.84;;;17.26;100.00
5413;BME280;2729;50.056;8.678;2023-05-21T04:26:59;99990.91;;;16.98;100.00
5413;BME280;2729;50.056;8.678;2023-05-21T04:29:27;99998.47;;;17.04;100.00
5413;BME280;2729;50.056;8.678;2023-05-21T04:31:54;99993.19;;;17.04;100.00
5413;BME280;2729;50.056;8.678;2023-05-21T04:34:23;99996.34;;;17.11;100.00
5413;BME280;2729;50.056;8.678;2023-05-21T04:36:49;99998.72;;;17.15;100.00
5413;BME280;2729;50.056;8.678;2023-05-21T04:39:16;100000.69;;;17.12;100.00
5413;BME280;2729;50.056;8.678;2023-05-21T04:41:42;99995.03;;;17.33;100.00
5413;BME280;2729;50.056;8.678;2023-05-21T04:44:09;99996.47;;;17.39;100.00
5413;BME280;2729;50.056;8.678;2023-05-21T04:46:39;99992.47;;;17.32;100.00
5413;BME280;2729;50.056;8.678;2023-05-21T04:49:05;99999.50;;;17.47;100.00
5413;BME280;2729;50.056;8.678;2023-05-21T04:51:31;100002.88;;;17.35;100.00
5413;BME280;2729;50.056;8.678;2023-05-21T04:53:57;100008.06;;;17.21;100.00
5413;BME280;2729;50.056;8.678;2023-05-21T04:56:23;100005.00;;;17.28;100.00
5413;BME280;2729;50.056;8.678;2023-05-21T04:58:52;99999.69;;;17.44;100.00
5413;BME280;2729;50.056;8.678;2023-05-21T05:01:20;100002.41;;;17.43;100.00
5413;BME280;2729;50.056;8.678;2023-05-21T05:03:50;100005.28;;;17.54;100.00
5413;BME280;2729;50.056;8.678;2023-05-21T05:06:16;100006.31;;;17.51;100.00
5413;BME280;2729;50.056;8.678;2023-05-21T05:08:42;100002.34;;;17.44;100.00
5413;BME280;2729;50.056;8.678;2023-05-21T05:11:08;100004.78;;;17.47;100.00
5413;BME280;2729;50.056;8.678;2023-05-21T05:13:36;100001.19;;;17.64;100.00
5413;BME280;2729;50.056;8.678;2023-05-21T05:16:03;100004.66;;;17.64;100.00
5413;BME280;2729;50.056;8.678;2023-05-21T05:18:30;99994.25;;;17.47;100.00
5413;BME280;2729;50.056;8.678;2023-05-21T05:20:59;99993.97;;;17.52;100.00
5413;BME280;2729;50.056;8.678;2023-05-21T05:23:25;99995.59;;;17.54;100.00
5413;BME280;2729;50.056;8.678;2023-05-21T05:25:51;99999.56;;;17.61;100.00
5413;BME280;2729;50.056;8.678;2023-05-21T05:28:17;99996.56;;;17.38;100.00
5413;BME280;2729;50.056;8.678;2023-05-21T05:30:43;99991.91;;;17.57;100.00
5413;BME280;2729;50.056;8.678;2023-05-21T05:33:17;99994.81;;;17.52;100.00
5413;BME280;2729;50.056;8.678;2023-05-21T05:35:43;99994.69;;;17.40;100.00
5413;BME280;2729;50.056;8.678;2023-05-21T05:38:09;99995.00;;;17.49;100.00
5413;BME280;2729;50.056;8.678;2023-05-21T05:40:35;99990.88;;;17.59;100.00
5413;BME280;2729;50.056;8.678;2023-05-21T05:43:01;99989.00;;;17.61;100.00
5413;BME280;2729;50.056;8.678;2023-05-21T05:45:28;99990.22;;;17.56;100.00
5413;BME280;2729;50.056;8.678;2023-05-21T05:47:54;99988.25;;;17.59;100.00
5413;BME280;2729;50.056;8.678;2023-05-21T05:50:19;99993.78;;;17.55;100.00
5413;BME280;2729;50.056;8.678;2023-05-21T05:52:47;100000.97;;;17.83;100.00
5413;BME280;2729;50.056;8.678;2023-05-21T05:58:24;100001.84;;;17.97;100.00
5413;BME280;2729;50.056;8.678;2023-05-21T06:00:57;99995.53;;;18.00;100.00
5413;BME280;2729;50.056;8.678;2023-05-21T06:03:25;99997.66;;;17.79;100.00
5413;BME280;2729;50.056;8.678;2023-05-21T06:05:52;99998.34;;;17.83;100.00
5413;BME280;2729;50.056;8.678;2023-05-21T06:08:18;99999.28;;;17.82;100.00
5413;BME280;2729;50.056;8.678;2023-05-21T06:10:45;100002.16;;;18.07;100.00
5413;BME280;2729;50.056;8.678;2023-05-21T06:13:10;99998.97;;;18.16;100.00
5413;BME280;2729;50.056;8.678;2023-05-21T06:15:36;100007.63;;;18.04;100.00
5413;BME280;2729;50.056;8.678;2023-05-21T06:18:03;99998.44;;;18.25;100.00
5413;BME280;2729;50.056;8.678;2023-05-21T06:20:29;100006.13;;;18.14;100.00
5413;BME280;2729;50.056;8.678;2023-05-21T06:22:56;100006.50;;;18.08;100.00
5413;BME280;2729;50.056;8.678;2023-05-21T06:25:22;100000.13;;;18.26;100.00
5413;BME280;2729;50.056;8.678;2023-05-21T06:27:48;100004.66;;;18.24;100.00
5413;BME280;2729;50.056;8.678;2023-05-21T06:30:19;99996.34;;;18.45;100.00
5413;BME280;2729;50.056;8.678;2023-05-21T06:32:46;99992.31;;;18.39;100.00
5413;BME280;2729;50.056;8.678;2023-05-21T06:35:11;99994.97;;;18.68;100.00
5413;BME280;2729;50.056;8.678;2023-05-21T06:37:38;99991.06;;;18.59;100.00
5413;BME280;2729;50.056;8.678;2023-05-21T06:40:04;99989.91;;;18.91;100.00
5413;BME280;2729;50.056;8.678;2023-05-21T06:42:32;99986.34;;;18.78;100.00
5413;BME280;2729;50.056;8.678;2023-05-21T06:52:01;99997.09;;;19.43;100.00
5413;BME280;2729;50.056;8.678;2023-05-21T06:54:27;100000.81;;;19.68;100.00
5413;BME280;2729;50.056;8.678;2023-05-21T06:56:54;100002.47;;;19.56;100.00
5413;BME280;2729;50.056;8.678;2023-05-21T06:59:23;99999.59;;;19.99;100.00
5413;BME280;2729;50.056;8.678;2023-05-21T07:01:48;100001.81;;;20.17;100.00
5413;BME280;2729;50.056;8.678;2023-05-21T07:04:14;100005.75;;;20.24;100.00
5413;BME280;2729;50.056;8.678;2023-05-21T07:06:42;100001.94;;;20.29;100.00
5413;BME280;2729;50.056;8.678;2023-05-21T07:09:08;100002.78;;;20.29;100.00
5413;BME280;2729;50.056;8.678;2023-05-21T07:11:36;100002.66;;;20.31;100.00
5413;BME280;2729;50.056;8.678;2023-05-21T07:14:05;99996.00;;;20.50;100.00
5413;BME280;2729;50.056;8.678;2023-05-21T07:16:32;99999.91;;;20.32;100.00
5413;BME280;2729;50.056;8.678;2023-05-21T07:18:58;99992.91;;;20.31;100.00
5413;BME280;2729;50.056;8.678;2023-05-21T07:21:24;99993.34;;;20.38;100.00
5413;BME280;2729;50.056;8.678;2023-05-21T07:23:52;99993.22;;;20.65;100.00
5413;BME280;2729;50.056;8.678;2023-05-21T07:26:18;99994.69;;;20.69;100.00
5413;BME280;2729;50.056;8.678;2023-05-21T07:28:44;99995.16;;;20.50;100.00
5413;BME280;2729;50.056;8.678;2023-05-21T07:31:10;99983.91;;;20.59;100.00
5413;BME280;2729;50.056;8.678;2023-05-21T07:33:44;99992.16;;;20.67;100.00
5413;BME280;2729;50.056;8.678;2023-05-21T07:36:11;99988.25;;;20.09;100.00
5413;BME280;2729;50.056;8.678;2023-05-21T07:38:38;99990.06;;;20.47;100.00
5413;BME280;2729;50.056;8.678;2023-05-21T07:41:06;99990.16;;;20.33;100.00
5413;BME280;2729;50.056;8.678;2023-05-21T07:43:33;99995.88;;;20.14;100.00
5413;BME280;2729;50.056;8.678;2023-05-21T07:45:59;99990.38;;;20.42;100.00
5413;BME280;2729;50.056;8.678;2023-05-21T07:48:52;99984.75;;;20.34;100.00
5413;BME280;2729;50.056;8.678;2023-05-21T07:51:18;99977.00;;;20.31;100.00
5413;BME280;2729;50.056;8.678;2023-05-21T07:53:44;99983.38;;;20.54;100.00
5413;BME280;2729;50.056;8.678;2023-05-21T07:56:13;99985.19;;;20.41;100.00
5413;BME280;2729;50.056;8.678;2023-05-21T07:58:39;99976.47;;;20.64;100.00
5413;BME280;2729;50.056;8.678;2023-05-21T08:01:05;99982.41;;;20.55;100.00
5413;BME280;2729;50.056;8.678;2023-05-21T08:03:31;99980.31;;;20.47;100.00
5413;BME280;2729;50.056;8.678;2023-05-21T08:05:57;99979.63;;;20.69;100.00
5413;BME280;2729;50.056;8.678;2023-05-21T08:08:24;99986.78;;;20.43;100.00
5413;BME280;2729;50.056;8.678;2023-05-21T08:10:52;99983.53;;;20.76;100.00
5413;BME280;2729;50.056;8.678;2023-05-21T08:13:19;99980.63;;;21.05;100.00
5413;BME280;2729;50.056;8.678;2023-05-21T08:15:48;99988.91;;;21.00;100.00
5413;BME280;2729;50.056;8.678;2023-05-21T08:18:14;99995.75;;;20.92;100.00
5413;BME280;2729;50.056;8.678;2023-05-21T08:20:42;99985.63;;;21.33;100.00
5413;BME280;2729;50.056;8.678;2023-05-21T08:23:08;99984.38;;;21.26;100.00
5413;BME280;2729;50.056;8.678;2023-05-21T08:25:40;99983.47;;;21.38;100.00
5413;BME280;2729;50.056;8.678;2023-05-21T08:28:06;99986.50;;;21.21;100.00
5413;BME280;2729;50.056;8.678;2023-05-21T08:30:32;99987.13;;;21.48;100.00
5413;BME280;2729;50.056;8.678;2023-05-21T08:32:58;99983.84;;;21.69;100.00
5413;BME280;2729;50.056;8.678;2023-05-21T08:35:25;99979.44;;;21.92;100.00
5413;BME280;2729;50.056;8.678;2023-05-21T08:37:59;99987.09;;;22.07;100.00
5413;BME280;2729;50.056;8.678;2023-05-21T08:40:45;99981.31;;;22.13;100.00
5413;BME280;2729;50.056;8.678;2023-05-21T08:43:15;99970.56;;;22.26;100.00
5413;BME280;2729;50.056;8.678;2023-05-21T08:45:46;99980.22;;;22.61;100.00
5413;BME280;2729;50.056;8.678;2023-05-21T08:48:15;99977.81;;;22.80;100.00
5413;BME280;2729;50.056;8.678;2023-05-21T08:50:42;99982.66;;;22.53;100.00
5413;BME280;2729;50.056;8.678;2023-05-21T08:53:14;99978.41;;;22.95;100.00
5413;BME280;2729;50.056;8.678;2023-05-21T08:55:41;99973.91;;;22.95;100.00
5413;BME280;2729;50.056;8.678;2023-05-21T08:58:08;99970.25;;;23.07;100.00
5413;BME280;2729;50.056;8.678;2023-05-21T09:00:35;99967.00;;;23.04;100.00
5413;BME280;2729;50.056;8.678;2023-05-21T09:03:03;99966.84;;;23.17;100.00
5413;BME280;2729;50.056;8.678;2023-05-21T09:05:34;99971.88;;;23.31;100.00
5413;BME280;2729;50.056;8.678;2023-05-21T09:08:28;99961.69;;;23.04;100.00
5413;BME280;2729;50.056;8.678;2023-05-21T09:11:01;99967.94;;;23.14;100.00
5413;BME280;2729;50.056;8.678;2023-05-21T09:13:33;99975.25;;;23.44;100.00
5413;BME280;2729;50.056;8.678;2023-05-21T09:16:05;99970.09;;;23.63;98.80
5413;BME280;2729;50.056;8.678;2023-05-21T09:18:32;99970.50;;;23.48;94.75
5413;BME280;2729;50.056;8.678;2023-05-21T09:21:28;99962.25;;;23.51;100.00
5413;BME280;2729;50.056;8.678;2023-05-21T09:23:58;99963.50;;;23.47;98.34
5413;BME280;2729;50.056;8.678;2023-05-21T09:26:25;99954.00;;;23.65;94.58
5413;BME280;2729;50.056;8.678;2023-05-21T09:28:56;99958.03;;;23.80;91.59
5413;BME280;2729;50.056;8.678;2023-05-21T09:31:23;99957.31;;;23.78;97.40
5413;BME280;2729;50.056;8.678;2023-05-21T09:33:50;99948.19;;;24.01;89.56
5413;BME280;2729;50.056;8.678;2023-05-21T09:36:18;99946.31;;;23.71;93.99
5413;BME280;2729;50.056;8.678;2023-05-21T09:38:47;99945.13;;;24.06;92.83
5413;BME280;2729;50.056;8.678;2023-05-21T09:41:14;99943.56;;;24.03;88.22
5413;BME280;2729;50.056;8.678;2023-05-21T09:43:41;99952.41;;;24.04;88.27
5413;BME280;2729;50.056;8.678;2023-05-21T09:46:09;99943.47;;;24.15;93.60
5413;BME280;2729;50.056;8.678;2023-05-21T09:48:37;99943.03;;;24.30;88.65
5413;BME280;2729;50.056;8.678;2023-05-21T09:53:51;99944.13;;;24.58;87.40
5413;BME280;2729;50.056;8.678;2023-05-21T09:56:20;99946.34;;;24.53;87.30
5413;BME280;2729;50.056;8.678;2023-05-21T09:58:57;99945.69;;;24.71;85.22
5413;BME280;2729;50.056;8.678;2023-05-21T10:01:25;99943.44;;;24.66;84.30
5413;BME280;2729;50.056;8.678;2023-05-21T10:03:55;99946.41;;;24.73;81.68
5413;BME280;2729;50.056;8.678;2023-05-21T10:06:29;99942.44;;;24.57;80.99
5413;BME280;2729;50.056;8.678;2023-05-21T10:09:00;99937.69;;;24.71;80.72
5413;BME280;2729;50.056;8.678;2023-05-21T10:11:30;99937.78;;;24.59;86.78
5413;BME280;2729;50.056;8.678;2023-05-21T10:14:06;99936.03;;;24.79;86.74
5413;BME280;2729;50.056;8.678;2023-05-21T10:16:35;99934.31;;;24.68;81.03
5413;BME280;2729;50.056;8.678;2023-05-21T10:19:02;99921.28;;;24.94;87.57
5413;BME280;2729;50.056;8.678;2023-05-21T10:21:31;99929.75;;;24.99;80.30
5413;BME280;2729;50.056;8.678;2023-05-21T10:23:58;99928.78;;;25.00;82.08
5413;BME280;2729;50.056;8.678;2023-05-21T10:26:29;99925.69;;;25.05;85.23
5413;BME280;2729;50.056;8.678;2023-05-21T10:28:56;99919.66;;;25.03;79.56
5413;BME280;2729;50.056;8.678;2023-05-21T10:31:25;99918.34;;;24.88;84.53
5413;BME280;2729;50.056;8.678;2023-05-21T10:33:56;99925.75;;;24.75;75.54
5413;BME280;2729;50.056;8.678;2023-05-21T10:36:29;99907.75;;;24.67;78.71
5413;BME280;2729;50.056;8.678;2023-05-21T10:38:59;99912.38;;;24.65;72.94
5413;BME280;2729;50.056;8.678;2023-05-21T10:41:26;99919.31;;;24.96;79.76
5413;BME280;2729;50.056;8.678;2023-05-21T10:44:39;99909.53;;;25.07;80.94
5413;BME280;2729;50.056;8.678;2023-05-21T10:47:19;99904.75;;;25.10;75.93
5413;BME280;2729;50.056;8.678;2023-05-21T10:50:00;99902.22;;;25.18;74.78
5413;BME280;2729;50.056;8.678;2023-05-21T10:52:54;99898.56;;;25.39;77.68
5413;BME280;2729;50.056;8.678;2023-05-21T10:55:46;99907.97;;;25.43;70.13
5413;BME280;2729;50.056;8.678;2023-05-21T10:58:29;99908.38;;;25.48;68.31
5413;BME280;2729;50.056;8.678;2023-05-21T11:00:58;99901.66;;;25.44;66.58
5413;BME280;2729;50.056;8.678;2023-05-21T11:03:24;99913.75;;;25.67;64.24
5413;BME280;2729;50.056;8.678;2023-05-21T11:05:54;99910.06;;;25.78;64.37
5413;BME280;2729;50.056;8.678;2023-05-21T11:08:29;99904.66;;;26.07;61.49
5413;BME280;2729;50.056;8.678;2023-05-21T11:10:58;99915.25;;;25.89;61.04
5413;BME280;2729;50.056;8.678;2023-05-21T11:13:25;99909.03;;;25.88;60.14
5413;BME280;2729;50.056;8.678;2023-05-21T11:21:17;99898.47;;;25.96;62.33
5413;BME280;2729;50.056;8.678;2023-05-21T11:23:50;99901.59;;;25.82;65.38
5413;BME280;2729;50.056;8.678;2023-05-21T11:26:17;99898.50;;;26.34;63.63
5413;BME280;2729;50.056;8.678;2023-05-21T11:28:43;99890.50;;;26.34;61.35
5413;BME280;2729;50.056;8.678;2023-05-21T11:33:47;99894.78;;;26.72;62.50
5413;BME280;2729;50.056;8.678;2023-05-21T11:36:13;99892.03;;;26.81;60.61
5413;BME280;2729;50.056;8.678;2023-05-21T11:38:39;99882.72;;;26.31;61.00
5413;BME280;2729;50.056;8.678;2023-05-21T11:41:05;99882.78;;;26.94;63.94
5413;BME280;2729;50.056;8.678;2023-05-21T11:43:39;99883.00;;;26.65;60.37
5413;BME280;2729;50.056;8.678;2023-05-21T11:46:05;99882.69;;;26.85;60.26
5413;BME280;2729;50.056;8.678;2023-05-21T11:48:31;99886.03;;;26.52;60.02
5413;BME280;2729;50.056;8.678;2023-05-21T11:51:00;99882.69;;;26.68;59.41
5413;BME280;2729;50.056;8.678;2023-05-21T11:53:28;99883.44;;;27.05;57.11
5413;BME280;2729;50.056;8.678;2023-05-21T11:55:56;99875.81;;;26.83;59.63
5413;BME280;2729;50.056;8.678;2023-05-21T11:58:22;99881.50;;;26.98;59.17
5413;BME280;2729;50.056;8.678;2023-05-21T12:00:50;99882.25;;;26.90;58.80
5413;BME280;2729;50.056;8.678;2023-05-21T12:03:16;99877.03;;;26.71;59.78
5413;BME280;2729;50.056;8.678;2023-05-21T12:05:44;99869.31;;;26.40;61.15
5413;BME280;2729;50.056;8.678;2023-05-21T12:11:27;99873.31;;;26.54;60.58
5413;BME280;2729;50.056;8.678;2023-05-21T12:13:53;99874.81;;;26.39;60.83
5413;BME280;2729;50.056;8.678;2023-05-21T12:16:19;99869.84;;;26.16;62.23
5413;BME280;2729;50.056;8.678;2023-05-21T12:18:45;99870.81;;;26.70;59.95
5413;BME280;2729;50.056;8.678;2023-05-21T12:21:11;99872.03;;;26.58;60.58
5413;BME280;2729;50.056;8.678;2023-05-21T12:23:37;99872.03;;;26.58;61.39
5413;BME280;2729;50.056;8.678;2023-05-21T12:26:03;99868.13;;;26.98;58.89
5413;BME280;2729;50.056;8.678;2023-05-21T12:28:29;99874.00;;;27.19;55.76
5413;BME280;2729;50.056;8.678;2023-05-21T12:30:56;99856.78;;;27.04;53.18
5413;BME280;2729;50.056;8.678;2023-05-21T12:33:22;99862.16;;;27.04;52.62
5413;BME280;2729;50.056;8.678;2023-05-21T12:35:50;99872.03;;;26.58;57.57
5413;BME280;2729;50.056;8.678;2023-05-21T12:38:17;99874.13;;;26.82;57.60
5413;BME280;2729;50.056;8.678;2023-05-21T12:40:43;99874.59;;;26.77;56.24
5413;BME280;2729;50.056;8.678;2023-05-21T12:43:10;99872.06;;;27.29;55.32
5413;BME280;2729;50.056;8.678;2023-05-21T12:45:37;99876.69;;;26.28;59.69
5413;BME280;2729;50.056;8.678;2023-05-21T12:48:04;99872.22;;;25.73;63.16
5413;BME280;2729;50.056;8.678;2023-05-21T12:50:31;99868.38;;;27.48;54.15
5413;BME280;2729;50.056;8.678;2023-05-21T12:52:57;99868.19;;;27.67;51.86
5413;BME280;2729;50.056;8.678;2023-05-21T12:55:26;99878.81;;;27.33;54.53
5413;BME280;2729;50.056;8.678;2023-05-21T12:58:02;99872.38;;;27.44;51.55
5413;BME280;2729;50.056;8.678;2023-05-21T13:00:31;99863.16;;;27.46;50.69
5413;BME280;2729;50.056;8.678;2023-05-21T13:02:57;99866.28;;;27.60;50.90
5413;BME280;2729;50.056;8.678;2023-05-21T13:05:25;99870.00;;;27.41;54.13
5413;BME280;2729;50.056;8.678;2023-05-21T13:07:51;99860.16;;;27.67;53.23
5413;BME280;2729;50.056;8.678;2023-05-21T13:10:18;99862.41;;;28.14;51.36
5413;BME280;2729;50.056;8.678;2023-05-21T13:12:45;99866.09;;;28.13;51.23
5413;BME280;2729;50.056;8.678;2023-05-21T13:15:13;99861.50;;;27.97;52.14
5413;BME280;2729;50.056;8.678;2023-05-21T13:17:39;99861.00;;;27.50;52.33
5413;BME280;2729;50.056;8.678;2023-05-21T13:22:32;99855.53;;;27.60;52.56
5413;BME280;2729;50.056;8.678;2023-05-21T13:24:58;99866.72;;;26.21;58.22
5413;BME280;2729;50.056;8.678;2023-05-21T13:27:24;99860.28;;;27.22;55.85
5413;BME280;2729;50.056;8.678;2023-05-21T13:29:50;99843.94;;;28.45;48.98
5413;BME280;2729;50.056;8.678;2023-05-21T13:32:16;99840.84;;;28.74;47.73
5413;BME280;2729;50.056;8.678;2023-05-21T13:34:43;99840.66;;;28.67;48.77
5413;BME280;2729;50.056;8.678;2023-05-21T13:37:09;99842.91;;;27.70;53.58
5413;BME280;2729;50.056;8.678;2023-05-21T13:39:35;99857.44;;;26.70;57.02
5413;BME280;2729;50.056;8.678;2023-05-21T13:42:01;99862.56;;;26.64;58.54
5413;BME280;2729;50.056;8.678;2023-05-21T13:44:30;99845.78;;;28.10;50.86
5413;BME280;2729;50.056;8.678;2023-05-21T13:47:01;99842.41;;;28.42;44.74
5413;BME280;2729;50.056;8.678;2023-05-21T13:49:27;99845.13;;;28.50;47.75